createdAt,value
2018-01-27T00:00:18.964Z,30.30
2018-01-27T00:02:45.220Z,36.17
2018-01-27T00:05:12.624Z,34.37
2018-01-27T00:07:40.006Z,39.97
2018-01-27T00:10:06.245Z,25.70
2018-01-27T00:12:32.480Z,27.70
2018-01-27T00:14:58.891Z,29.80
2018-01-27T00:17:25.109Z,37.10
2018-01-27T00:19:51.403Z,31.27
2018-01-27T00:22:17.692Z,35.10
2018-01-27T00:24:44.839Z,31.53
2018-01-27T00:27:11.762Z,32.27
2018-01-27T00:29:38.908Z,37.83
2018-01-27T00:32:05.412Z,29.00
2018-01-27T00:34:31.625Z,37.80
2018-01-27T00:36:58.670Z,28.90
2018-01-27T00:39:24.876Z,28.23
2018-01-27T00:41:51.241Z,26.70
2018-01-27T00:44:17.464Z,32.83
2018-01-27T00:46:43.686Z,26.87
2018-01-27T00:49:10.078Z,36.50
2018-01-27T00:51:36.309Z,26.13
2018-01-27T00:54:02.549Z,40.23
2018-01-27T00:56:28.840Z,29.27
2018-01-27T00:58:55.059Z,28.77
2018-01-27T01:01:21.311Z,32.40
2018-01-27T01:03:48.527Z,30.53
2018-01-27T01:06:14.779Z,32.13
2018-01-27T01:08:41.007Z,29.43
2018-01-27T01:11:07.924Z,29.07
2018-01-27T01:13:35.177Z,32.50
2018-01-27T01:16:01.432Z,30.73
2018-01-27T01:18:28.337Z,36.67
2018-01-27T01:20:54.829Z,35.37
2018-01-27T01:23:21.944Z,32.93
2018-01-27T01:25:48.179Z,33.20
2018-01-27T01:28:14.415Z,28.80
2018-01-27T01:30:40.860Z,29.70
2018-01-27T01:33:07.060Z,30.43
2018-01-27T01:35:34.052Z,28.90
2018-01-27T01:38:00.532Z,29.03
2018-01-27T01:40:26.767Z,29.83
2018-01-27T01:42:58.945Z,32.23
2018-01-27T01:45:25.315Z,37.83
2018-01-27T01:47:51.604Z,30.03
2018-01-27T01:50:17.844Z,29.10
2018-01-27T01:52:44.188Z,32.27
2018-01-27T01:55:10.460Z,39.10
2018-01-27T01:57:36.665Z,36.40
2018-01-27T02:00:02.968Z,27.97
2018-01-27T02:02:29.294Z,30.70
2018-01-27T02:04:55.516Z,28.37
2018-01-27T02:07:22.762Z,30.17
2018-01-27T02:09:49.011Z,31.00
2018-01-27T02:12:15.190Z,30.20
2018-01-27T02:14:41.393Z,36.53
2018-01-27T02:17:07.638Z,31.53
2018-01-27T02:19:33.865Z,27.27
2018-01-27T02:22:00.127Z,32.30
2018-01-27T02:24:26.482Z,28.23
2018-01-27T02:26:52.704Z,32.00
2018-01-27T02:29:18.952Z,27.77
2018-01-27T02:31:45.750Z,26.20
2018-01-27T02:34:12.156Z,31.47
2018-01-27T02:36:38.376Z,30.97
2018-01-27T02:39:04.817Z,31.47
2018-01-27T02:41:31.065Z,32.73
2018-01-27T02:43:57.322Z,24.20
2018-01-27T02:46:24.538Z,33.43
2018-01-27T02:48:50.883Z,25.90
2018-01-27T02:51:17.117Z,30.33
2018-01-27T02:53:43.345Z,28.80
2018-01-27T02:56:09.752Z,26.57
2018-01-27T02:58:35.987Z,23.83
2018-01-27T03:01:02.239Z,27.60
2018-01-27T03:03:28.575Z,28.23
2018-01-27T03:05:54.764Z,26.17
2018-01-27T03:08:21.064Z,28.70
2018-01-27T03:10:47.536Z,30.43
2018-01-27T03:13:13.726Z,33.47
2018-01-27T03:15:39.966Z,50.33
2018-01-27T03:18:06.284Z,111.80
2018-01-27T03:20:33.300Z,148.80
2018-01-27T03:22:59.519Z,192.73
2018-01-27T03:25:26.379Z,147.17
2018-01-27T03:27:52.607Z,204.07
2018-01-27T03:30:18.820Z,123.20
2018-01-27T03:32:45.819Z,133.30
2018-01-27T03:35:12.200Z,130.47
2018-01-27T03:37:38.410Z,67.13
2018-01-27T03:40:04.625Z,128.67
2018-01-27T03:42:31.037Z,50.07
2018-01-27T03:44:57.294Z,87.47
2018-01-27T03:47:24.279Z,81.27
2018-01-27T03:49:50.463Z,74.40
2018-01-27T03:52:16.676Z,62.67
2018-01-27T03:54:42.913Z,68.10
2018-01-27T03:57:09.192Z,118.47
2018-01-27T03:59:35.413Z,150.00
2018-01-27T04:02:01.679Z,165.73
2018-01-27T04:04:27.934Z,96.67
2018-01-27T04:06:55.081Z,126.23
2018-01-27T04:09:21.344Z,145.57
2018-01-27T04:11:47.596Z,109.20
2018-01-27T04:14:14.674Z,149.87
2018-01-27T04:16:40.924Z,94.43
2018-01-27T04:19:07.136Z,29.80
2018-01-27T04:21:34.424Z,54.13
2018-01-27T04:24:00.792Z,39.47
2018-01-27T04:26:27.016Z,41.13
2018-01-27T04:28:53.240Z,25.13
2018-01-27T04:31:19.760Z,38.83
2018-01-27T04:33:45.995Z,64.63
2018-01-27T04:36:12.193Z,73.73
2018-01-27T04:38:38.519Z,68.43
2018-01-27T04:41:04.766Z,95.07
2018-01-27T04:43:30.975Z,160.90
2018-01-27T04:45:57.332Z,129.10
2018-01-27T04:48:23.538Z,174.47
2018-01-27T04:50:49.725Z,137.00
2018-01-27T04:53:16.115Z,94.47
2018-01-27T04:55:43.106Z,112.93
2018-01-27T04:58:09.305Z,113.23
2018-01-27T05:00:35.659Z,123.03
2018-01-27T05:03:01.851Z,123.83
2018-01-27T05:05:28.099Z,109.47
2018-01-27T05:07:54.333Z,100.30
2018-01-27T05:10:20.550Z,127.57
2018-01-27T05:12:47.559Z,92.27
2018-01-27T05:15:13.780Z,96.17
2018-01-27T05:17:40.156Z,76.87
2018-01-27T05:20:06.385Z,94.40
2018-01-27T05:22:32.576Z,107.63
2018-01-27T05:24:59.112Z,123.13
2018-01-27T05:27:25.367Z,97.50
2018-01-27T05:29:51.767Z,97.67
2018-01-27T05:32:18.284Z,103.60
2018-01-27T05:34:44.533Z,83.77
2018-01-27T05:37:10.804Z,113.53
2018-01-27T05:39:37.453Z,78.03
2018-01-27T05:42:03.679Z,286.63
2018-01-27T05:44:29.917Z,147.50
2018-01-27T05:46:56.223Z,113.10
2018-01-27T05:49:23.336Z,171.47
2018-01-27T05:51:49.562Z,153.63
2018-01-27T05:54:15.802Z,117.90
2018-01-27T05:56:42.189Z,166.43
2018-01-27T05:59:08.416Z,273.63
2018-01-27T06:01:34.632Z,262.83
2018-01-27T06:04:01.028Z,282.20
2018-01-27T06:06:27.281Z,282.40
2018-01-27T06:08:54.230Z,217.17
2018-01-27T06:11:21.418Z,239.73
2018-01-27T06:13:47.773Z,337.77
2018-01-27T06:16:14.001Z,278.20
2018-01-27T06:18:40.200Z,265.63
2018-01-27T06:21:06.788Z,256.87
2018-01-27T06:23:33.009Z,178.53
2018-01-27T06:25:59.190Z,141.80
2018-01-27T06:28:28.438Z,198.17
2018-01-27T06:30:57.005Z,210.50
2018-01-27T06:33:24.083Z,294.30
2018-01-27T06:35:50.363Z,188.30
2018-01-27T06:38:17.328Z,260.17
2018-01-27T06:40:44.247Z,289.40
2018-01-27T06:43:10.560Z,242.70
2018-01-27T06:45:36.944Z,213.50
2018-01-27T06:48:03.196Z,138.17
2018-01-27T06:50:29.444Z,162.70
2018-01-27T06:52:55.690Z,206.43
2018-01-27T06:55:22.637Z,236.60
2018-01-27T06:57:48.888Z,331.80
2018-01-27T07:00:15.849Z,103.53
2018-01-27T07:02:42.960Z,132.47
2018-01-27T07:05:11.304Z,152.80
2018-01-27T07:07:38.282Z,94.30
2018-01-27T07:10:04.485Z,257.57
2018-01-27T07:12:30.858Z,183.03
2018-01-27T07:14:57.053Z,141.43
2018-01-27T07:17:23.494Z,136.43
2018-01-27T07:19:49.784Z,75.93
2018-01-27T07:22:16.014Z,89.97
2018-01-27T07:24:42.950Z,194.60
2018-01-27T07:27:09.291Z,92.87
2018-01-27T07:29:35.561Z,108.07
2018-01-27T07:32:01.775Z,51.67
2018-01-27T07:34:28.241Z,62.73
2018-01-27T07:36:54.488Z,82.33
2018-01-27T07:39:20.798Z,118.47
2018-01-27T07:41:47.044Z,52.70
2018-01-27T07:44:13.296Z,86.70
2018-01-27T07:46:39.547Z,52.40
2018-01-27T07:49:05.748Z,192.53
2018-01-27T07:51:31.958Z,102.97
2018-01-27T07:53:58.213Z,84.13
2018-01-27T07:56:24.461Z,133.20
2018-01-27T07:58:50.796Z,109.87
2018-01-27T08:01:17.066Z,181.30
2018-01-27T08:03:43.300Z,163.20
2018-01-27T08:06:09.693Z,104.03
2018-01-27T08:08:36.322Z,92.93
2018-01-27T08:11:02.617Z,94.20
2018-01-27T08:13:29.822Z,115.73
2018-01-27T08:15:56.242Z,169.23
2018-01-27T08:18:23.285Z,133.60
2018-01-27T08:20:49.657Z,139.97
2018-01-27T08:23:16.020Z,105.80
2018-01-27T08:25:42.251Z,128.83
2018-01-27T08:28:08.561Z,96.43
2018-01-27T08:30:35.405Z,90.53
2018-01-27T08:33:01.654Z,68.23
2018-01-27T08:35:28.003Z,69.23
2018-01-27T08:37:54.417Z,80.37
2018-01-27T08:40:20.655Z,231.20
2018-01-27T08:42:47.754Z,82.33
2018-01-27T08:45:13.996Z,97.40
2018-01-27T08:47:40.305Z,131.63
2018-01-27T08:50:07.307Z,161.17
2018-01-27T08:52:33.532Z,120.60
2018-01-27T08:55:00.553Z,85.23
2018-01-27T08:57:26.792Z,89.60
2018-01-27T08:59:53.048Z,121.30
2018-01-27T09:02:19.459Z,71.23
2018-01-27T09:04:45.672Z,98.37
2018-01-27T09:07:11.865Z,113.43
2018-01-27T09:09:38.072Z,144.93
2018-01-27T09:12:04.280Z,126.43
2018-01-27T09:14:30.506Z,122.63
2018-01-27T09:16:56.736Z,127.63
2018-01-27T09:19:24.616Z,242.37
2018-01-27T09:21:50.848Z,142.97
2018-01-27T09:24:17.075Z,105.90
2018-01-27T09:26:43.453Z,118.27
2018-01-27T09:29:09.656Z,137.73
2018-01-27T09:31:35.839Z,76.37
2018-01-27T09:34:02.225Z,67.70
2018-01-27T09:36:28.413Z,71.13
2018-01-27T09:38:55.402Z,126.20
2018-01-27T09:41:21.597Z,91.77
2018-01-27T09:43:48.699Z,85.10
2018-01-27T09:46:14.912Z,91.57
2018-01-27T09:48:41.132Z,66.57
2018-01-27T09:51:07.425Z,75.93
2018-01-27T09:53:33.717Z,55.30
2018-01-27T09:55:59.960Z,53.30
2018-01-27T09:58:27.011Z,65.23
2018-01-27T10:00:53.228Z,58.60
2018-01-27T10:03:19.440Z,72.00
2018-01-27T10:05:45.743Z,108.87
2018-01-27T10:08:12.924Z,90.93
2018-01-27T10:10:39.934Z,85.10
2018-01-27T10:13:06.279Z,112.00
2018-01-27T10:15:32.676Z,94.27
2018-01-27T10:17:59.752Z,82.47
2018-01-27T10:20:26.062Z,106.37
2018-01-27T10:22:53.336Z,79.97
2018-01-27T10:25:20.389Z,120.63
2018-01-27T10:27:47.438Z,73.20
2018-01-27T10:30:13.719Z,101.03
2018-01-27T10:32:39.940Z,111.10
2018-01-27T10:35:06.347Z,91.00
2018-01-27T10:37:32.700Z,128.43
2018-01-27T10:39:58.955Z,106.67
2018-01-27T10:42:25.369Z,94.90
2018-01-27T10:44:51.642Z,84.27
2018-01-27T10:47:18.633Z,88.70
2018-01-27T10:49:44.850Z,89.33
2018-01-27T10:52:12.908Z,92.40
2018-01-27T10:54:39.138Z,110.00
2018-01-27T10:57:05.358Z,92.90
2018-01-27T10:59:31.561Z,77.03
2018-01-27T11:01:57.752Z,75.63
2018-01-27T11:04:23.937Z,73.73
2018-01-27T11:06:50.253Z,78.37
2018-01-27T11:09:16.486Z,83.13
2018-01-27T11:11:42.719Z,78.03
2018-01-27T11:14:08.951Z,72.80
2018-01-27T11:16:36.213Z,71.40
2018-01-27T11:19:02.396Z,75.87
2018-01-27T11:21:28.609Z,70.57
2018-01-27T11:23:54.947Z,75.57
2018-01-27T11:26:21.167Z,67.23
2018-01-27T11:28:47.366Z,74.53
2018-01-27T11:31:13.674Z,81.50
2018-01-27T11:33:39.836Z,75.53
2018-01-27T11:36:06.033Z,117.23
2018-01-27T11:38:32.451Z,78.60
2018-01-27T11:40:59.387Z,81.97
2018-01-27T11:43:25.601Z,96.03
2018-01-27T11:45:51.796Z,96.67
2018-01-27T11:48:18.955Z,58.97
2018-01-27T11:50:45.906Z,74.73
2018-01-27T11:53:12.882Z,78.33
2018-01-27T11:55:39.099Z,68.80
2018-01-27T11:58:05.282Z,92.77
2018-01-27T12:00:31.475Z,66.40
2018-01-27T12:02:57.752Z,79.30
2018-01-27T12:05:23.915Z,73.37
2018-01-27T12:07:50.116Z,65.13
2018-01-27T12:10:17.132Z,63.27
2018-01-27T12:12:43.531Z,71.03
2018-01-27T12:15:09.712Z,58.77
2018-01-27T12:17:35.939Z,41.33
2018-01-27T12:20:02.308Z,73.40
2018-01-27T12:22:28.563Z,63.97
2018-01-27T12:24:54.741Z,69.87
2018-01-27T12:27:21.277Z,83.63
2018-01-27T12:29:47.481Z,74.07
2018-01-27T12:32:13.648Z,66.30
2018-01-27T12:34:40.604Z,79.93
2018-01-27T12:37:06.807Z,68.83
2018-01-27T12:39:33.006Z,67.23
2018-01-27T12:41:59.270Z,73.93
2018-01-27T12:44:25.516Z,87.00
2018-01-27T12:46:52.392Z,71.43
2018-01-27T12:49:18.599Z,77.23
2018-01-27T12:51:44.927Z,68.70
2018-01-27T12:54:11.125Z,65.17
2018-01-27T12:56:37.379Z,81.17
2018-01-27T12:59:04.637Z,77.33
2018-01-27T13:01:30.818Z,79.27
2018-01-27T13:03:56.997Z,74.27
2018-01-27T13:06:23.585Z,84.57
2018-01-27T13:08:56.218Z,92.17
2018-01-27T13:11:22.565Z,75.03
2018-01-27T13:13:48.896Z,79.63
2018-01-27T13:16:15.096Z,67.27
2018-01-27T13:18:41.283Z,70.43
2018-01-27T13:21:07.508Z,76.73
2018-01-27T13:23:33.675Z,72.53
2018-01-27T13:25:59.890Z,65.27
2018-01-27T13:28:26.094Z,67.33
2018-01-27T13:30:52.391Z,62.77
2018-01-27T13:33:18.592Z,66.50
2018-01-27T13:35:45.753Z,66.07
2018-01-27T13:38:13.005Z,60.60
2018-01-27T13:40:39.951Z,79.40
2018-01-27T13:43:06.125Z,84.17
2018-01-27T13:45:32.455Z,71.17
2018-01-27T13:47:59.397Z,78.20
2018-01-27T13:50:25.917Z,59.00
2018-01-27T13:52:52.245Z,92.27
2018-01-27T13:55:18.609Z,79.77
2018-01-27T13:57:45.158Z,68.83
2018-01-27T14:00:11.754Z,79.57
2018-01-27T14:02:38.529Z,72.53
2018-01-27T14:05:05.040Z,55.47
2018-01-27T14:07:31.345Z,64.73
2018-01-27T14:09:57.848Z,57.40
2018-01-27T14:12:25.032Z,65.53
2018-01-27T14:14:51.413Z,75.43
2018-01-27T14:17:17.932Z,76.13
2018-01-27T14:19:44.504Z,77.10
2018-01-27T14:22:11.739Z,79.40
2018-01-27T14:24:38.006Z,75.67
2018-01-27T14:27:04.239Z,68.87
2018-01-27T14:29:31.226Z,68.70
2018-01-27T14:31:57.485Z,84.77
2018-01-27T14:34:23.772Z,80.47
2018-01-27T14:36:50.234Z,114.50
2018-01-27T14:39:17.251Z,92.77
2018-01-27T14:41:43.488Z,72.97
2018-01-27T14:44:10.784Z,74.40
2018-01-27T14:46:37.162Z,87.47
2018-01-27T14:49:03.435Z,81.70
2018-01-27T14:51:30.420Z,97.73
2018-01-27T14:53:56.848Z,85.80
2018-01-27T14:56:28.207Z,91.37
2018-01-27T14:58:54.618Z,118.67
2018-01-27T15:01:20.896Z,82.50
2018-01-27T15:06:21.711Z,81.20
2018-01-27T15:08:48.582Z,72.87
2018-01-27T15:11:15.128Z,75.17
2018-01-27T15:13:41.509Z,74.67
2018-01-27T15:16:08.748Z,85.67
2018-01-27T15:18:35.191Z,91.97
2018-01-27T15:21:02.829Z,69.97
2018-01-27T15:23:29.032Z,78.50
2018-01-27T15:25:55.971Z,90.07
2018-01-27T15:28:22.476Z,83.87
2018-01-27T15:30:48.717Z,76.37
2018-01-27T15:33:14.896Z,87.47
2018-01-27T15:35:41.279Z,98.17
2018-01-27T15:38:07.457Z,90.20
2018-01-27T15:40:33.680Z,82.70
2018-01-27T15:43:00.041Z,93.70
2018-01-27T15:45:26.272Z,83.27
2018-01-27T15:47:53.568Z,102.57
2018-01-27T15:50:20.765Z,113.13
2018-01-27T15:52:47.303Z,167.17
2018-01-27T15:55:14.682Z,113.43
2018-01-27T15:57:40.873Z,141.77
2018-01-27T16:00:07.132Z,209.57
2018-01-27T16:02:34.184Z,118.13
2018-01-27T16:05:00.399Z,182.23
2018-01-27T16:07:26.606Z,192.73
2018-01-27T16:09:53.483Z,158.07
2018-01-27T16:12:20.659Z,182.10
2018-01-27T16:14:46.872Z,218.43
2018-01-27T16:17:13.062Z,213.60
2018-01-27T16:19:39.618Z,206.33
2018-01-27T16:22:05.915Z,266.93
2018-01-27T16:24:32.112Z,252.47
2018-01-27T16:26:58.473Z,260.43
2018-01-27T16:29:25.787Z,167.17
2018-01-27T16:31:52.813Z,174.07
2018-01-27T16:34:19.005Z,147.43
2018-01-27T16:36:46.354Z,238.30
2018-01-27T16:39:12.571Z,208.57
2018-01-27T16:41:39.640Z,197.87
2018-01-27T16:44:05.893Z,147.57
2018-01-27T16:46:32.582Z,200.73
2018-01-27T16:49:00.912Z,181.10
2018-01-27T16:51:27.135Z,152.93
2018-01-27T16:53:53.377Z,200.93
2018-01-27T16:56:20.464Z,141.83
2018-01-27T16:58:46.687Z,157.40
2018-01-27T17:01:12.900Z,274.43
2018-01-27T17:03:39.307Z,90.27
2018-01-27T17:06:05.499Z,114.97
2018-01-27T17:08:32.451Z,119.67
2018-01-27T17:13:31.176Z,137.40
2018-01-27T17:15:57.347Z,155.07
2018-01-27T17:18:24.346Z,135.50
2018-01-27T17:20:50.603Z,260.03
2018-01-27T17:23:16.779Z,133.90
2018-01-27T17:25:43.714Z,158.10
2018-01-27T17:28:11.099Z,94.63
2018-01-27T17:30:38.108Z,107.13
2018-01-27T17:33:04.308Z,178.27
2018-01-27T17:35:32.222Z,113.30
2018-01-27T17:37:58.486Z,92.37
2018-01-27T17:40:24.656Z,152.03
2018-01-27T17:42:51.162Z,144.57
2018-01-27T17:45:17.380Z,85.10
2018-01-27T17:47:43.692Z,89.57
2018-01-27T17:50:09.906Z,95.73
2018-01-27T17:52:36.103Z,89.60
2018-01-27T17:55:09.939Z,150.57
2018-01-27T17:57:36.497Z,131.93
2018-01-27T18:00:02.800Z,110.70
2018-01-27T18:02:29.686Z,124.27
2018-01-27T18:04:55.913Z,74.17
2018-01-27T18:07:22.164Z,147.73
2018-01-27T18:09:48.520Z,76.60
2018-01-27T18:12:14.710Z,113.77
2018-01-27T18:14:41.641Z,75.87
2018-01-27T18:17:07.804Z,58.10
2018-01-27T18:19:34.943Z,70.60
2018-01-27T18:22:01.166Z,68.10
2018-01-27T18:24:27.461Z,87.47
2018-01-27T18:26:55.195Z,109.37
2018-01-27T18:29:22.358Z,99.40
2018-01-27T18:31:48.768Z,101.47
2018-01-27T18:34:14.974Z,113.40
2018-01-27T18:36:41.376Z,124.50
2018-01-27T18:39:07.667Z,128.87
2018-01-27T18:41:33.872Z,145.63
2018-01-27T18:44:00.756Z,126.03
2018-01-27T18:46:27.215Z,140.23
2018-01-27T18:48:53.488Z,137.60
2018-01-27T18:51:19.735Z,140.83
2018-01-27T18:53:46.116Z,166.77
2018-01-27T18:56:12.320Z,135.83
2018-01-27T18:58:39.517Z,161.47
2018-01-27T19:01:05.983Z,160.33
2018-01-27T19:03:32.165Z,153.77
2018-01-27T19:05:58.364Z,171.20
2018-01-27T19:08:24.740Z,173.40
2018-01-27T19:10:50.953Z,162.97
2018-01-27T19:13:17.132Z,143.73
2018-01-27T19:15:43.578Z,171.37
2018-01-27T19:18:09.808Z,168.10
2018-01-27T19:20:36.012Z,172.27
2018-01-27T19:23:02.290Z,192.93
2018-01-27T19:25:31.585Z,221.77
2018-01-27T19:27:58.927Z,184.53
2018-01-27T19:30:26.317Z,186.07
2018-01-27T19:35:25.697Z,199.33
2018-01-27T19:37:54.045Z,195.30
2018-01-27T19:40:21.987Z,243.87
2018-01-27T19:42:49.535Z,196.60
2018-01-27T19:45:16.801Z,221.03
2018-01-27T19:47:43.488Z,211.97
2018-01-27T19:50:10.644Z,221.20
2018-01-27T19:52:37.129Z,188.83
2018-01-27T19:55:04.082Z,214.47
2018-01-27T19:57:30.319Z,210.93
2018-01-27T19:59:56.988Z,220.23
2018-01-27T20:02:24.743Z,192.70
2018-01-27T20:04:51.716Z,212.47
2018-01-27T20:07:31.712Z,229.53
2018-01-27T20:09:57.963Z,206.47
2018-01-27T20:12:25.232Z,193.87
2018-01-27T20:14:52.269Z,196.10
2018-01-27T20:17:18.484Z,193.17
2018-01-27T20:19:46.136Z,208.23
2018-01-27T20:22:14.081Z,207.00
2018-01-27T20:24:42.340Z,210.97
2018-01-27T20:27:09.431Z,227.47
2018-01-27T20:29:36.659Z,210.33
2018-01-27T20:32:03.846Z,221.73
2018-01-27T20:34:30.044Z,203.33
2018-01-27T20:36:56.495Z,232.90
2018-01-27T20:39:23.216Z,223.50
2018-01-27T20:41:49.391Z,242.63
2018-01-27T20:44:17.675Z,242.23
2018-01-27T20:46:43.979Z,236.87
2018-01-27T20:49:10.386Z,254.33
2018-01-27T20:51:38.639Z,229.17
2018-01-27T20:54:04.876Z,218.07
2018-01-27T20:56:32.885Z,231.17
2018-01-27T20:59:04.452Z,215.80
2018-01-27T21:01:32.553Z,213.57
2018-01-27T21:07:02.513Z,195.60
2018-01-27T21:09:30.490Z,196.30
2018-01-27T21:11:57.430Z,174.07
2018-01-27T21:14:23.672Z,177.73
2018-01-27T21:16:50.311Z,175.63
2018-01-27T21:19:40.382Z,162.33
2018-01-27T21:22:07.741Z,158.97
2018-01-27T21:24:36.164Z,166.30
2018-01-27T21:27:06.446Z,166.70
2018-01-27T21:29:32.946Z,165.40
2018-01-27T21:31:59.736Z,151.47
2018-01-27T21:34:27.869Z,151.67
2018-01-27T21:36:54.334Z,141.67
2018-01-27T21:39:22.776Z,151.53
2018-01-27T21:41:49.817Z,115.33
2018-01-27T21:44:16.806Z,125.20
2018-01-27T21:46:45.956Z,130.03
2018-01-27T21:49:15.343Z,131.10
2018-01-27T21:51:42.414Z,119.10
2018-01-27T21:54:08.706Z,130.83
2018-01-27T21:56:36.328Z,128.03
2018-01-27T21:59:03.770Z,119.20
2018-01-27T22:01:32.066Z,112.93
2018-01-27T22:03:58.859Z,135.03
2018-01-27T22:06:25.351Z,112.97
2018-01-27T22:08:51.663Z,111.23
2018-01-27T22:11:20.004Z,116.13
2018-01-27T22:13:47.717Z,105.53
2018-01-27T22:16:15.198Z,107.27
2018-01-27T22:18:43.876Z,107.90
2018-01-27T22:21:11.867Z,99.00
2018-01-27T22:23:40.737Z,106.63
2018-01-27T22:26:07.058Z,87.77
2018-01-27T22:28:33.474Z,95.30
2018-01-27T22:30:59.754Z,94.80
2018-01-27T22:33:26.017Z,97.83
2018-01-27T22:35:53.576Z,80.53
2018-01-27T22:38:19.999Z,87.13
2018-01-27T22:40:47.100Z,83.93
2018-01-27T22:43:14.663Z,85.63
2018-01-27T22:45:41.055Z,86.97
2018-01-27T22:48:07.532Z,81.13
2018-01-27T22:50:35.005Z,86.43
2018-01-27T22:53:04.700Z,87.20
2018-01-27T22:55:31.438Z,90.57
2018-01-27T22:57:58.133Z,106.33
2018-01-27T23:00:24.425Z,103.60
2018-01-27T23:02:50.698Z,115.67
2018-01-27T23:05:17.880Z,101.13
2018-01-27T23:07:47.906Z,97.50
2018-01-27T23:10:14.497Z,96.23
2018-01-27T23:12:40.877Z,96.10
2018-01-27T23:15:07.131Z,96.20
2018-01-27T23:17:34.193Z,94.20
2018-01-27T23:20:01.465Z,106.43
2018-01-27T23:22:28.006Z,93.60
2018-01-27T23:24:54.541Z,93.80
2018-01-27T23:27:21.037Z,101.83
2018-01-27T23:29:47.383Z,87.63
2018-01-27T23:32:14.342Z,94.33
2018-01-27T23:34:40.600Z,96.37
2018-01-27T23:37:07.008Z,105.00
2018-01-27T23:39:33.253Z,100.00
2018-01-27T23:41:59.490Z,90.17
2018-01-27T23:44:25.924Z,101.30
2018-01-27T23:46:52.490Z,83.43
2018-01-27T23:49:19.318Z,91.17
2018-01-27T23:51:45.630Z,93.83
2018-01-27T23:54:11.915Z,97.30
2018-01-27T23:56:38.171Z,98.10
2018-01-27T23:59:04.400Z,97.50
